Stations météo

Publicité
Mont Aigoual, France (7560): Température de l'air & dewpoint: 19.07.2017 10:00:00 - 25.07.2017 10:00:00 (CEST)Mont Aigoual, France (7560): Vitesse du vent & gusts: 19.07.2017 10:00:00 - 25.07.2017 10:00:00 (CEST)Mont Aigoual, France (7560): Direction du vent: 19.07.2017 10:00:00 - 25.07.2017 10:00:00 (CEST)Mont Aigoual, France (7560): visibility: 19.07.2017 10:00:00 - 25.07.2017 10:00:00 (CEST)Mont Aigoual, France (7560): Quantités de précipitations: 19.07.2017 10:00:00 - 25.07.2017 10:00:00 (CEST)
Date & Time tt [°C] td [°C] ff [km/h] ff [knt] fx [km/h] fx [knt] dd vv [km] rr [mm]
25.07.2017 10:00:00 7,6 7,3 48 26 82 44 N 2,3 0,0
25.07.2017 09:00:00 7,4 7,4 55 30 92 50 N 1,6 0,0
25.07.2017 08:00:00 7,1 7,1 64 34 106 57 N 0,3 0,0
25.07.2017 07:00:00 7,4 7,4 58 31 101 55 N 0,1 0,0
25.07.2017 06:00:00 7,4 7,4 68 37 104 56 NNW 0,4 0,2
25.07.2017 05:00:00 7,9 7,9 54 29 98 53 NNW 0,1 0,0
25.07.2017 04:00:00 7,4 7,4 70 38 107 58 N 0,2 0,0
25.07.2017 03:00:00 7,6 7,6 58 32 98 53 NNW 0,1 0,0
25.07.2017 02:00:00 7,9 7,9 54 29 90 49 N 0,1 0,0
25.07.2017 01:00:00 7,8 7,8 61 33 97 53 N 0,1 0,0
25.07.2017 00:00:00 7,8 7,7 55 30 104 56 N 0,1 0,0
24.07.2017 23:00:00 7,9 7,8 64 35 109 59 N 0,1 0,0
24.07.2017 22:00:00 8,1 7,7 66 36 119 64 NNW 16 0,0
24.07.2017 21:00:00 8,5 7,7 69 37 105 57 NNW 20 0,0
24.07.2017 20:00:00 9,1 7,4 63 34 112 61 NNW 20 0,0
24.07.2017 19:00:00 9,9 7,3 60 32 97 52 NNW 20 0,0
24.07.2017 18:00:00 10,7 7,4 67 36 105 57 NNW 20 0,0
24.07.2017 17:00:00 10,1 8,5 56 31 89 48 NNW 20 0,0
24.07.2017 16:00:00 9,8 9,8 57 31 98 53 NNW 1,5 0,2
24.07.2017 15:00:00 10,4 10,4 42 23 92 50 NNW 0,1 0,6
24.07.2017 14:00:00 10,5 10,5 50 27 85 46 NW 0,1 0,8
24.07.2017 13:00:00 10,5 10,5 56 30 98 53 NW 0,1 0,0
24.07.2017 12:00:00 10,1 10,1 51 28 77 42 NW 0,1 0,8
24.07.2017 11:00:00 9,7 9,7 47 25 89 48 NW 0,1 0,0
24.07.2017 10:00:00 9,5 9,5 54 29 86 46 NW 0,1 0,4
24.07.2017 09:00:00 9,7 9,7 60 33 97 53 NW 0,1 0,0
24.07.2017 08:00:00 9,3 9,3 77 41 112 60 NW 0,1 0,2
24.07.2017 07:00:00 8,9 8,9 74 40 96 52 NW 0,1 0,0
24.07.2017 06:00:00 8,5 8,5 60 33 95 51 NW 0,1 0,0
24.07.2017 05:00:00 9,6 9,6 66 36 96 52 NW - 0,2
24.07.2017 04:00:00 9,5 9,5 55 30 99 54 NW - 0,2
24.07.2017 03:00:00 9,1 9,1 72 39 96 52 NW 0,1 0,0
24.07.2017 02:00:00 9,1 9,0 66 36 86 47 NW 0,1 0,0
24.07.2017 01:00:00 9,1 9,0 58 31 81 44 NW 0,1 0,0
24.07.2017 00:00:00 9,2 8,6 60 32 80 43 NW 15 0,0
23.07.2017 23:00:00 9,3 8,8 63 34 82 44 NW 10 0,0
23.07.2017 22:00:00 9,9 9,0 61 33 80 43 NW 20 0,0
23.07.2017 21:00:00 11,5 8,5 51 28 65 35 NW 20 0,0
23.07.2017 20:00:00 13,6 8,4 42 23 54 29 NW 20 0,0
23.07.2017 19:00:00 14,6 9,0 39 21 53 28 NNW 20 0,0
23.07.2017 18:00:00 15,3 7,6 37 20 50 27 NNW 20 0,0
23.07.2017 17:00:00 15,9 8,1 31 17 41 22 NW 20 0,0
23.07.2017 16:00:00 15,8 8,8 19 10 42 23 NW 20 0,0
23.07.2017 15:00:00 15,4 10,4 26 14 40 21 NW 20 0,0
23.07.2017 14:00:00 14,3 10,5 25 14 47 25 NW 20 0,0
23.07.2017 13:00:00 13,2 10,6 24 13 44 24 NW 19 0,0
23.07.2017 12:00:00 11,9 10,6 28 15 49 26 NW 18 0,0
23.07.2017 11:00:00 11,0 10,8 31 17 48 26 NW 0,5 0,0
23.07.2017 10:00:00 10,5 10,5 35 19 49 26 NW 0,1 0,0
23.07.2017 09:00:00 10,1 9,9 34 19 42 23 NW 0,1 0,0
23.07.2017 08:00:00 9,4 9,1 38 21 45 25 NW 0,1 0,0
23.07.2017 07:00:00 10,6 9,5 30 16 45 24 NW 17 0,0
23.07.2017 06:00:00 10,9 9,3 37 20 58 31 WNW 20 0,0
23.07.2017 05:00:00 10,4 9,3 40 21 58 31 WNW 20 0,0
23.07.2017 04:00:00 9,7 9,6 41 22 58 32 WNW 0,8 0,0
23.07.2017 03:00:00 10,2 10,0 42 23 57 31 WNW 0,1 0,0
23.07.2017 02:00:00 10,8 10,6 39 21 53 29 WNW 0,1 0,0
23.07.2017 01:00:00 12,2 12,0 40 21 55 30 NW - 0,0
23.07.2017 00:00:00 12,7 12,5 38 21 54 29 NW - 0,0
22.07.2017 23:00:00 13,4 13,2 43 23 62 33 NW 0,1 0,0
22.07.2017 22:00:00 13,9 13,7 44 24 55 30 WNW - 0,0
22.07.2017 21:00:00 15,0 14,4 32 17 42 23 NW 0,2 0,0
22.07.2017 20:00:00 16,5 12,5 21 12 38 20 SW 20 0,0
22.07.2017 19:00:00 17,3 12,0 28 15 50 27 S 20 0,0
22.07.2017 18:00:00 17,8 12,5 32 18 48 26 S 19 0,0
22.07.2017 17:00:00 17,8 12,7 31 17 50 27 S 20 0,0
22.07.2017 16:00:00 18,1 12,8 31 17 51 27 S 20 0,0
22.07.2017 15:00:00 18,0 13,9 26 14 44 24 S 20 0,0
22.07.2017 14:00:00 17,0 13,1 28 15 41 22 S 20 0,0
22.07.2017 13:00:00 16,5 12,6 24 13 41 22 S 19 0,0
22.07.2017 12:00:00 15,4 11,8 27 15 36 20 S 20 0,0
22.07.2017 11:00:00 14,4 12,8 19 10 26 14 S 19 0,0
22.07.2017 10:00:00 13,9 10,5 14 8 23 12 S 20 0,0
22.07.2017 09:00:00 13,8 9,6 15 8 23 12 S 20 0,0
22.07.2017 08:00:00 13,3 10,1 17 9 29 16 S 20 0,0
22.07.2017 07:00:00 13,7 9,5 27 14 34 18 SSW 20 0,0
22.07.2017 06:00:00 13,8 10,2 14 8 28 15 S 20 0,0
22.07.2017 05:00:00 13,4 10,6 20 11 27 15 SSW 20 0,0
22.07.2017 04:00:00 12,3 11,7 16 9 29 16 WSW 0,2 0,0
22.07.2017 03:00:00 12,4 11,6 22 12 36 20 WSW 0,4 0,0
22.07.2017 02:00:00 12,4 12,1 29 15 41 22 WSW 0,1 0,0
22.07.2017 01:00:00 12,8 11,0 8 4 32 17 SSW 18 0,0
22.07.2017 00:00:00 13,3 11,0 22 12 31 17 SSW 20 0,0
21.07.2017 23:00:00 13,2 10,2 14 8 19 10 S 20 0,0
21.07.2017 22:00:00 13,7 10,3 16 9 23 13 S 20 0,0
21.07.2017 21:00:00 14,3 10,3 20 11 25 14 S 20 0,0
21.07.2017 20:00:00 15,0 12,1 16 9 28 15 S 20 0,0
21.07.2017 19:00:00 15,7 12,8 16 9 33 18 S 20 0,0
21.07.2017 18:00:00 15,3 12,4 21 11 36 19 S 20 0,0
21.07.2017 17:00:00 15,3 12,4 13 7 26 14 S 20 0,0
21.07.2017 16:00:00 15,2 12,3 14 7 40 21 SE 20 0,0
21.07.2017 15:00:00 14,2 12,1 29 16 49 27 SSW 19 0,4
21.07.2017 14:00:00 15,5 11,7 28 15 52 28 S 20 0,0
21.07.2017 13:00:00 15,9 11,9 34 18 50 27 S 20 0,0
21.07.2017 12:00:00 14,7 12,4 17 9 34 19 S 20 0,0
21.07.2017 11:00:00 14,8 12,3 23 12 37 20 S 20 0,0
21.07.2017 10:00:00 15,1 12,4 18 10 27 15 S 20 0,0
21.07.2017 09:00:00 14,3 12,0 17 9 26 14 SSE 20 0,0
21.07.2017 08:00:00 14,3 12,0 20 11 25 14 SSE 20 0,0
21.07.2017 07:00:00 13,8 11,5 10 5 15 8 SSE 20 0,0
21.07.2017 06:00:00 13,1 11,3 5 3 12 7 E 20 0,0
21.07.2017 05:00:00 12,9 11,5 9 5 12 7 ENE 20 0,0
21.07.2017 04:00:00 13,5 11,0 6 3 13 7 NE 20 0,0
21.07.2017 03:00:00 13,6 11,3 9 5 11 6 NNE 20 0,0
21.07.2017 02:00:00 13,3 11,4 4 2 20 11 NNE 20 0,0
21.07.2017 01:00:00 12,8 11,5 17 9 30 16 NW 20 0,0
21.07.2017 00:00:00 12,6 11,8 19 10 44 24 NW 16 0,0
20.07.2017 23:00:00 12,2 11,6 34 19 43 23 NW 19 0,0
20.07.2017 22:00:00 12,4 11,9 32 17 42 23 NW 0,3 0,0
20.07.2017 21:00:00 13,6 12,7 30 16 42 23 NW 11 0,0
20.07.2017 20:00:00 14,6 13,0 27 14 34 18 NW 19 0,0
20.07.2017 19:00:00 15,9 13,0 21 11 27 14 WNW 20 0,0
20.07.2017 18:00:00 17,1 13,6 16 9 28 15 WNW 19 0,0
20.07.2017 17:00:00 16,4 12,7 17 9 27 15 NW 20 0,0
20.07.2017 16:00:00 16,1 12,8 10 5 19 10 WNW 19 0,0
20.07.2017 15:00:00 16,1 13,4 5 3 16 9 SW 20 0,0
20.07.2017 14:00:00 16,1 13,4 4 2 15 8 S 20 0,0
20.07.2017 13:00:00 16,0 12,4 3 2 20 11 N 18 0,0
20.07.2017 12:00:00 15,7 13,0 9 5 21 11 S 20 0,0
20.07.2017 11:00:00 15,0 12,3 6 3 27 14 S 20 0,0
20.07.2017 10:00:00 13,7 11,0 16 9 24 13 WNW 20 0,0
20.07.2017 09:00:00 13,0 9,6 18 10 32 17 WNW 20 0,0
20.07.2017 08:00:00 12,4 8,9 25 14 41 22 WNW 20 0,0
20.07.2017 07:00:00 12,3 7,8 21 11 32 17 WNW 20 0,0
20.07.2017 06:00:00 11,1 8,8 21 11 44 24 SSW 20 0,0
20.07.2017 05:00:00 11,6 8,3 - - - - - - 1,0
20.07.2017 04:00:00 9,5 8,4 33 18 69 37 N 10 2,9
20.07.2017 03:00:00 9,6 8,5 54 29 81 44 N 5 6,2
20.07.2017 02:00:00 11,1 9,5 38 21 63 34 NW 18 0,0
20.07.2017 01:00:00 11,9 11,6 38 21 63 34 S 0,1 0,0
20.07.2017 00:00:00 11,7 10,4 39 21 62 34 S 14 0,0
19.07.2017 23:00:00 12,3 5,0 47 25 54 29 SSE 20 0,0
19.07.2017 22:00:00 13,3 4,2 36 20 54 29 S 20 0,0
19.07.2017 21:00:00 13,5 5,4 27 15 59 32 SSE 20 0,0
19.07.2017 20:00:00 12,9 7,6 41 22 56 31 SSE 20 0,2
19.07.2017 19:00:00 13,7 8,3 39 21 63 34 S 20 0,0
19.07.2017 18:00:00 15,0 8,0 40 22 56 31 S 20 0,0
19.07.2017 17:00:00 15,9 8,6 43 23 66 36 S 20 0,0
19.07.2017 16:00:00 16,3 10,8 37 20 71 39 S 20 0,0
19.07.2017 15:00:00 15,5 10,9 46 25 74 40 S 20 0,0
19.07.2017 14:00:00 15,5 12,1 40 21 69 37 S 19 0,0
19.07.2017 13:00:00 14,7 12,2 43 23 63 34 S 20 0,0
19.07.2017 12:00:00 12,8 12,6 41 22 69 37 S 2,0 0,0
19.07.2017 11:00:00 12,7 12,5 53 29 79 43 S - 0,0
19.07.2017 10:00:00 12,3 12,1 51 28 77 42 S 0,1 0,0

tt = Température de l'air
td = dewpoint
ff = Vitesse du vent
fx = gusts
dd = Direction du vent
vv = visibility
rr = Quantités de précipitations

stations d'obs. à proximité